createdAt,value
2018-12-07T00:02:00.241Z,0.10
2018-12-07T00:04:28.925Z,0.13
2018-12-07T00:06:57.648Z,0.20
2018-12-07T00:09:26.403Z,0.10
2018-12-07T00:11:55.709Z,0.10
2018-12-07T00:14:24.306Z,0.10
2018-12-07T00:16:53.459Z,0.20
2018-12-07T00:19:22.351Z,0.17
2018-12-07T00:21:51.199Z,0.07
2018-12-07T00:24:19.962Z,0.67
2018-12-07T00:26:48.812Z,0.33
2018-12-07T00:29:17.699Z,0.33
2018-12-07T00:31:46.357Z,0.60
2018-12-07T00:34:15.409Z,0.80
2018-12-07T00:36:44.131Z,0.83
2018-12-07T00:39:13.243Z,1.17
2018-12-07T00:41:42.035Z,0.70
2018-12-07T00:44:10.959Z,0.83
2018-12-07T00:46:39.792Z,1.97
2018-12-07T00:49:08.936Z,1.20
2018-12-07T00:51:38.647Z,0.80
2018-12-07T00:54:07.364Z,0.50
2018-12-07T00:56:36.659Z,2.33
2018-12-07T00:59:05.431Z,0.27
2018-12-07T01:01:34.176Z,0.30
2018-12-07T01:04:03.541Z,0.80
2018-12-07T01:06:32.263Z,1.33
2018-12-07T01:09:01.342Z,0.53
2018-12-07T01:11:30.062Z,0.53
2018-12-07T01:13:59.114Z,0.60
2018-12-07T01:16:27.917Z,1.10
2018-12-07T01:18:56.872Z,0.77
2018-12-07T01:21:25.662Z,0.30
2018-12-07T01:23:54.548Z,0.30
2018-12-07T01:26:23.668Z,0.57
2018-12-07T01:28:52.343Z,0.47
2018-12-07T01:31:21.029Z,1.50
2018-12-07T01:33:50.010Z,0.40
2018-12-07T01:36:18.734Z,1.03
2018-12-07T01:38:47.628Z,0.53
2018-12-07T01:41:16.452Z,1.27
2018-12-07T01:43:45.216Z,1.13
2018-12-07T01:46:14.046Z,0.60
2018-12-07T01:48:42.852Z,0.03
2018-12-07T01:51:11.633Z,0.17
2018-12-07T01:53:40.814Z,1.20
2018-12-07T01:56:09.528Z,0.13
2018-12-07T01:58:38.173Z,0.50
2018-12-07T02:01:07.024Z,0.10
2018-12-07T02:03:35.756Z,1.23
2018-12-07T02:06:04.527Z,0.70
2018-12-07T02:08:33.170Z,0.53
2018-12-07T02:11:02.098Z,0.10
2018-12-07T02:13:30.753Z,0.37
2018-12-07T02:15:59.568Z,0.77
2018-12-07T02:18:28.260Z,0.40
2018-12-07T02:20:57.043Z,2.07
2018-12-07T02:23:25.877Z,0.17
2018-12-07T02:25:55.016Z,0.20
2018-12-07T02:28:23.729Z,0.93
2018-12-07T02:30:52.419Z,2.20
2018-12-07T02:33:21.163Z,0.10
2018-12-07T02:35:50.053Z,0.50
2018-12-07T02:38:18.726Z,1.67
2018-12-07T02:40:47.442Z,1.20
2018-12-07T02:43:16.259Z,1.93
2018-12-07T02:45:45.073Z,0.27
2018-12-07T02:48:13.760Z,0.17
2018-12-07T02:50:42.424Z,0.57
2018-12-07T02:53:11.112Z,0.83
2018-12-07T02:55:39.897Z,0.27
2018-12-07T02:58:08.697Z,0.17
2018-12-07T03:00:37.485Z,0.27
2018-12-07T03:03:06.382Z,1.33
2018-12-07T03:05:35.219Z,1.03
2018-12-07T03:08:04.086Z,0.10
2018-12-07T03:10:32.947Z,0.17
2018-12-07T03:13:01.636Z,0.03
2018-12-07T03:15:30.354Z,0.03
2018-12-07T03:17:59.595Z,0.23
2018-12-07T03:20:28.528Z,0.30
2018-12-07T03:22:57.208Z,0.30
2018-12-07T03:25:26.037Z,1.07
2018-12-07T03:27:54.674Z,1.60
2018-12-07T03:30:23.392Z,1.10
2018-12-07T03:32:53.029Z,0.30
2018-12-07T03:35:21.784Z,0.20
2018-12-07T03:37:51.003Z,0.30
2018-12-07T03:40:20.045Z,0.97
2018-12-07T03:42:49.140Z,0.73
2018-12-07T03:45:17.942Z,0.33
2018-12-07T03:47:46.663Z,0.70
2018-12-07T03:50:15.398Z,0.73
2018-12-07T03:52:44.067Z,0.37
2018-12-07T03:55:13.096Z,0.97
2018-12-07T03:57:42.217Z,0.53
2018-12-07T04:00:11.238Z,0.60
2018-12-07T04:02:40.375Z,0.53
2018-12-07T04:05:09.096Z,0.40
2018-12-07T04:07:37.903Z,0.37
2018-12-07T04:10:07.446Z,0.20
2018-12-07T04:12:36.242Z,0.70
2018-12-07T04:15:05.312Z,0.30
2018-12-07T04:17:34.318Z,0.90
2018-12-07T04:20:03.115Z,3.00
2018-12-07T04:22:31.975Z,0.37
2018-12-07T04:25:00.977Z,2.10
2018-12-07T04:27:29.971Z,0.20
2018-12-07T04:30:09.659Z,2.83
2018-12-07T04:32:38.618Z,1.40
2018-12-07T04:35:07.781Z,0.77
2018-12-07T04:37:36.739Z,0.50
2018-12-07T04:40:05.871Z,0.30
2018-12-07T04:42:34.613Z,1.10
2018-12-07T04:45:04.390Z,4.80
2018-12-07T04:47:33.499Z,0.17
2018-12-07T04:50:02.430Z,2.03
2018-12-07T04:52:31.275Z,0.43
2018-12-07T04:55:00.967Z,0.30
2018-12-07T04:57:29.635Z,0.97
2018-12-07T04:59:59.199Z,0.33
2018-12-07T05:02:28.335Z,0.27
2018-12-07T05:04:57.493Z,0.37
2018-12-07T05:07:26.298Z,0.10
2018-12-07T05:09:55.285Z,0.40
2018-12-07T05:12:24.295Z,0.40
2018-12-07T05:14:53.419Z,0.83
2018-12-07T05:17:22.188Z,1.10
2018-12-07T05:19:51.036Z,3.90
2018-12-07T05:22:20.184Z,2.20
2018-12-07T05:24:49.179Z,0.73
2018-12-07T05:27:18.193Z,0.60
2018-12-07T05:29:46.968Z,1.23
2018-12-07T05:32:16.046Z,0.90
2018-12-07T05:34:44.909Z,1.63
2018-12-07T05:37:14.235Z,1.00
2018-12-07T05:39:43.428Z,3.20
2018-12-07T05:42:12.490Z,0.97
2018-12-07T05:44:41.203Z,0.47
2018-12-07T05:47:09.865Z,1.30
2018-12-07T05:49:38.498Z,0.30
2018-12-07T05:52:07.126Z,1.93
2018-12-07T05:54:36.123Z,1.07
2018-12-07T05:57:05.254Z,1.50
2018-12-07T05:59:33.965Z,2.87
2018-12-07T06:02:02.662Z,1.40
2018-12-07T06:04:31.302Z,1.37
2018-12-07T06:06:59.935Z,1.63
2018-12-07T06:09:28.950Z,1.43
2018-12-07T06:11:57.815Z,0.87
2018-12-07T06:14:27.030Z,0.50
2018-12-07T06:16:56.848Z,2.87
2018-12-07T06:19:25.619Z,1.03
2018-12-07T06:21:54.787Z,1.37
2018-12-07T06:24:23.655Z,2.80
2018-12-07T06:26:52.515Z,1.47
2018-12-07T06:29:21.767Z,2.03
2018-12-07T06:31:50.527Z,3.37
2018-12-07T06:34:19.315Z,1.67
2018-12-07T06:36:48.020Z,1.50
2018-12-07T06:39:16.766Z,2.73
2018-12-07T06:41:46.080Z,1.40
2018-12-07T06:44:15.215Z,1.53
2018-12-07T06:46:43.955Z,0.60
2018-12-07T06:49:13.899Z,1.20
2018-12-07T06:51:43.856Z,1.57
2018-12-07T06:54:13.026Z,3.07
2018-12-07T06:56:41.786Z,2.27
2018-12-07T06:59:10.718Z,2.23
2018-12-07T07:01:39.598Z,2.60
2018-12-07T07:04:08.336Z,2.93
2018-12-07T07:06:37.473Z,2.07
2018-12-07T07:09:08.860Z,1.53
2018-12-07T07:11:37.718Z,1.00
2018-12-07T07:14:06.794Z,1.90
2018-12-07T07:16:35.897Z,1.00
2018-12-07T07:19:05.134Z,0.60
2018-12-07T07:21:34.112Z,0.93
2018-12-07T07:24:03.251Z,1.40
2018-12-07T07:26:32.093Z,1.13
2018-12-07T07:29:01.125Z,0.60
2018-12-07T07:31:30.195Z,1.17
2018-12-07T07:33:59.567Z,1.63
2018-12-07T07:36:28.714Z,0.50
2018-12-07T07:38:57.957Z,0.90
2018-12-07T07:41:27.165Z,1.80
2018-12-07T07:43:56.048Z,0.60
2018-12-07T07:46:24.920Z,0.90
2018-12-07T07:48:53.953Z,0.87
2018-12-07T07:51:22.590Z,1.13
2018-12-07T07:53:51.378Z,0.60
2018-12-07T07:56:20.379Z,0.70
2018-12-07T07:58:49.311Z,2.83
2018-12-07T08:01:18.189Z,0.83
2018-12-07T08:03:47.222Z,0.87
2018-12-07T08:06:16.396Z,0.80
2018-12-07T08:08:45.241Z,1.83
2018-12-07T08:11:14.652Z,2.37
2018-12-07T08:13:43.566Z,0.80
2018-12-07T08:16:12.680Z,1.57
2018-12-07T08:18:41.510Z,1.40
2018-12-07T08:21:10.156Z,0.80
2018-12-07T08:23:39.189Z,0.97
2018-12-07T08:26:08.171Z,0.83
2018-12-07T08:28:37.123Z,0.73
2018-12-07T08:31:05.996Z,0.43
2018-12-07T08:33:34.721Z,1.13
2018-12-07T08:36:03.475Z,1.73
2018-12-07T08:38:32.371Z,0.73
2018-12-07T08:41:01.135Z,0.80
2018-12-07T08:43:30.324Z,0.80
2018-12-07T08:45:59.421Z,0.60
2018-12-07T08:48:28.944Z,2.10
2018-12-07T08:50:58.106Z,0.60
2018-12-07T08:53:27.495Z,0.80
2018-12-07T08:55:56.641Z,1.80
2018-12-07T08:58:25.487Z,3.20
2018-12-07T09:00:54.382Z,1.20
2018-12-07T09:03:23.655Z,0.93
2018-12-07T09:05:52.736Z,2.77
2018-12-07T09:08:21.812Z,1.10
2018-12-07T09:10:50.639Z,1.40
2018-12-07T09:13:19.768Z,1.73
2018-12-07T09:15:48.599Z,1.27
2018-12-07T09:18:17.551Z,2.13
2018-12-07T09:20:53.687Z,0.67
2018-12-07T09:23:17.350Z,2.90
2018-12-07T09:25:46.499Z,0.80
2018-12-07T09:28:15.502Z,1.33
2018-12-07T09:30:44.510Z,2.30
2018-12-07T09:33:13.649Z,1.03
2018-12-07T09:35:42.409Z,1.70
2018-12-07T09:38:13.301Z,1.70
2018-12-07T09:40:42.493Z,1.40
2018-12-07T09:43:11.415Z,4.00
2018-12-07T09:45:40.415Z,1.37
2018-12-07T09:48:09.244Z,1.23
2018-12-07T09:50:39.062Z,1.43
2018-12-07T09:53:08.113Z,1.23
2018-12-07T09:55:37.123Z,1.97
2018-12-07T09:58:05.946Z,3.10
2018-12-07T10:00:35.427Z,5.13
2018-12-07T10:03:04.394Z,1.90
2018-12-07T10:05:33.422Z,3.73
2018-12-07T10:08:02.602Z,3.20
2018-12-07T10:10:32.125Z,4.30
2018-12-07T10:13:07.683Z,3.63
2018-12-07T10:15:32.232Z,3.13
2018-12-07T10:18:01.020Z,1.53
2018-12-07T10:20:29.710Z,1.60
2018-12-07T10:22:58.716Z,2.37
2018-12-07T10:25:27.848Z,1.97
2018-12-07T10:27:57.005Z,1.90
2018-12-07T10:30:25.873Z,1.73
2018-12-07T10:32:54.920Z,1.27
2018-12-07T10:35:23.631Z,1.00
2018-12-07T10:37:52.397Z,2.73
2018-12-07T10:40:21.194Z,3.03
2018-12-07T10:42:49.896Z,1.00
2018-12-07T10:45:19.181Z,1.53
2018-12-07T10:47:50.466Z,1.30
2018-12-07T10:50:18.810Z,2.23
2018-12-07T10:52:47.661Z,0.97
2018-12-07T10:55:16.881Z,1.80
2018-12-07T10:57:45.742Z,0.90
2018-12-07T11:00:22.965Z,1.20
2018-12-07T11:02:56.193Z,1.37
2018-12-07T11:05:30.015Z,1.17
2018-12-07T11:08:04.164Z,3.17
2018-12-07T11:10:38.275Z,2.90
2018-12-07T11:13:12.392Z,2.50
2018-12-07T11:15:46.375Z,3.50
2018-12-07T11:18:20.417Z,5.37
2018-12-07T11:20:54.408Z,4.83
2018-12-07T11:23:28.425Z,4.93
2018-12-07T11:26:02.435Z,3.57
2018-12-07T11:28:36.669Z,3.17
2018-12-07T11:31:11.037Z,1.60
2018-12-07T11:33:45.931Z,3.20
2018-12-07T11:36:14.889Z,3.80
2018-12-07T11:38:43.730Z,2.83
2018-12-07T11:41:12.469Z,1.37
2018-12-07T11:43:41.231Z,1.50
2018-12-07T11:46:10.423Z,1.37
2018-12-07T11:48:39.236Z,2.00
2018-12-07T11:51:08.129Z,2.23
2018-12-07T11:53:36.862Z,4.37
2018-12-07T11:56:05.884Z,1.90
2018-12-07T11:58:34.513Z,3.37
2018-12-07T12:01:03.434Z,2.23
2018-12-07T12:03:32.220Z,1.60
2018-12-07T12:06:01.020Z,2.63
2018-12-07T12:08:30.142Z,2.00
2018-12-07T12:10:58.960Z,4.20
2018-12-07T12:13:28.058Z,2.10
2018-12-07T12:15:56.784Z,3.33
2018-12-07T12:18:25.374Z,3.93
2018-12-07T12:20:54.274Z,5.17
2018-12-07T12:23:23.190Z,3.17
2018-12-07T12:25:52.236Z,3.30
2018-12-07T12:28:21.003Z,2.17
2018-12-07T12:30:49.990Z,3.07
2018-12-07T12:33:18.904Z,3.97
2018-12-07T12:35:47.770Z,2.77
2018-12-07T12:38:16.831Z,1.87
2018-12-07T12:40:45.767Z,2.53
2018-12-07T12:43:14.495Z,1.87
2018-12-07T12:45:43.340Z,1.77
2018-12-07T12:48:12.074Z,2.37
2018-12-07T12:50:40.786Z,2.43
2018-12-07T12:53:09.566Z,2.00
2018-12-07T12:55:38.754Z,4.47
2018-12-07T12:58:07.516Z,2.17
2018-12-07T13:00:36.458Z,3.97
2018-12-07T13:03:05.342Z,2.27
2018-12-07T13:05:34.039Z,3.23
2018-12-07T13:08:02.744Z,3.83
2018-12-07T13:10:31.473Z,3.20
2018-12-07T13:13:00.319Z,1.17
2018-12-07T13:15:29.157Z,1.23
2018-12-07T13:17:57.836Z,1.10
2018-12-07T13:20:26.649Z,2.40
2018-12-07T13:22:55.527Z,1.37
2018-12-07T13:25:24.330Z,2.63
2018-12-07T13:27:53.334Z,1.37
2018-12-07T13:30:22.387Z,4.43
2018-12-07T13:32:51.386Z,2.87
2018-12-07T13:35:21.275Z,3.07
2018-12-07T13:37:50.295Z,3.73
2018-12-07T13:40:19.038Z,4.60
2018-12-07T13:42:48.137Z,2.40
2018-12-07T13:45:17.226Z,2.23
2018-12-07T13:47:46.019Z,3.60
2018-12-07T13:50:20.221Z,1.20
2018-12-07T13:52:49.127Z,3.57
2018-12-07T13:55:18.111Z,1.70
2018-12-07T13:57:47.323Z,5.07
2018-12-07T14:00:16.294Z,1.37
2018-12-07T14:02:45.353Z,1.73
2018-12-07T14:05:14.364Z,1.57
2018-12-07T14:07:43.344Z,2.53
2018-12-07T14:10:13.428Z,5.10
2018-12-07T14:12:42.381Z,2.73
2018-12-07T14:15:11.738Z,2.83
2018-12-07T14:17:41.029Z,2.27
2018-12-07T14:20:10.968Z,4.13
2018-12-07T14:22:39.975Z,3.07
2018-12-07T14:25:09.126Z,3.57
2018-12-07T14:27:37.929Z,1.90
2018-12-07T14:30:08.565Z,1.97
2018-12-07T14:32:37.602Z,1.77
2018-12-07T14:35:06.817Z,1.40
2018-12-07T14:37:35.649Z,2.00
2018-12-07T14:40:05.044Z,2.00
2018-12-07T14:42:34.170Z,2.00
2018-12-07T14:45:03.375Z,1.83
2018-12-07T14:47:32.380Z,1.67
2018-12-07T14:50:01.401Z,1.17
2018-12-07T14:52:30.083Z,2.53
2018-12-07T14:54:59.189Z,2.23
2018-12-07T14:57:28.424Z,2.23
2018-12-07T14:59:57.442Z,2.10
2018-12-07T15:02:26.916Z,1.63
2018-12-07T15:04:55.772Z,1.50
2018-12-07T15:07:24.967Z,2.23
2018-12-07T15:09:54.303Z,4.77
2018-12-07T15:12:24.075Z,0.70
2018-12-07T15:14:53.033Z,1.73
2018-12-07T15:17:22.449Z,1.63
2018-12-07T15:19:51.620Z,3.10
2018-12-07T15:22:20.844Z,3.93
2018-12-07T15:24:49.668Z,1.43
2018-12-07T15:27:18.765Z,1.80
2018-12-07T15:29:47.926Z,1.30
2018-12-07T15:32:16.996Z,2.67
2018-12-07T15:34:45.886Z,8.63
2018-12-07T15:37:14.992Z,4.60
2018-12-07T15:39:43.683Z,1.77
2018-12-07T15:42:12.420Z,2.87
2018-12-07T15:44:41.552Z,4.30
2018-12-07T15:47:10.482Z,3.73
2018-12-07T15:49:43.371Z,3.43
2018-12-07T15:52:12.764Z,2.93
2018-12-07T15:54:41.766Z,3.07
2018-12-07T15:57:10.462Z,4.83
2018-12-07T15:59:39.462Z,4.60
2018-12-07T16:02:08.244Z,4.30
2018-12-07T16:04:37.073Z,3.63
2018-12-07T16:07:05.953Z,3.50
2018-12-07T16:09:35.230Z,4.83
2018-12-07T16:12:04.218Z,4.47
2018-12-07T16:14:32.998Z,2.70
2018-12-07T16:17:02.215Z,3.83
2018-12-07T16:19:31.412Z,2.83
2018-12-07T16:22:00.195Z,3.13
2018-12-07T16:24:29.286Z,6.57
2018-12-07T16:26:58.289Z,8.83
2018-12-07T16:29:27.327Z,4.73
2018-12-07T16:31:56.241Z,5.83
2018-12-07T16:34:25.423Z,4.17
2018-12-07T16:36:54.410Z,5.00
2018-12-07T16:39:23.442Z,2.93
2018-12-07T16:41:52.397Z,5.23
2018-12-07T16:44:21.485Z,3.07
2018-12-07T16:46:50.208Z,3.13
2018-12-07T16:49:19.268Z,1.90
2018-12-07T16:51:48.640Z,4.10
2018-12-07T16:54:17.927Z,2.57
2018-12-07T16:56:46.717Z,2.87
2018-12-07T16:59:15.787Z,4.33
2018-12-07T17:01:45.149Z,2.30
2018-12-07T17:04:14.234Z,4.07
2018-12-07T17:06:43.272Z,2.63
2018-12-07T17:09:12.476Z,4.53
2018-12-07T17:11:41.377Z,6.70
2018-12-07T17:14:10.466Z,7.50
2018-12-07T17:16:39.202Z,11.77
2018-12-07T17:19:08.110Z,10.07
2018-12-07T17:21:37.069Z,14.83
2018-12-07T17:24:06.019Z,11.00
2018-12-07T17:26:36.214Z,10.90
2018-12-07T17:29:05.255Z,16.77
2018-12-07T17:31:34.361Z,14.13
2018-12-07T17:34:03.625Z,17.00
2018-12-07T17:36:32.889Z,16.93
2018-12-07T17:39:01.874Z,16.23
2018-12-07T17:41:31.109Z,23.27
2018-12-07T17:44:00.028Z,23.50
2018-12-07T17:46:29.015Z,19.50
2018-12-07T17:48:57.768Z,19.17
2018-12-07T17:51:26.610Z,14.73
2018-12-07T17:53:55.510Z,20.37
2018-12-07T17:56:24.869Z,16.53
2018-12-07T17:58:53.890Z,25.17
2018-12-07T18:01:23.376Z,29.17
2018-12-07T18:03:52.050Z,34.40
2018-12-07T18:06:20.763Z,27.23
2018-12-07T18:08:49.749Z,31.83
2018-12-07T18:11:18.774Z,34.77
2018-12-07T18:13:48.221Z,39.47
2018-12-07T18:16:17.618Z,25.80
2018-12-07T18:18:46.414Z,22.87
2018-12-07T18:21:15.809Z,27.93
2018-12-07T18:23:45.305Z,26.83
2018-12-07T18:26:14.099Z,22.90
2018-12-07T18:28:43.183Z,29.00
2018-12-07T18:31:11.928Z,29.37
2018-12-07T18:33:42.758Z,33.03
2018-12-07T18:36:11.696Z,28.03
2018-12-07T18:38:40.878Z,36.13
2018-12-07T18:41:10.097Z,35.13
2018-12-07T18:43:39.000Z,40.27
2018-12-07T18:46:08.014Z,43.43
2018-12-07T18:48:37.312Z,40.00
2018-12-07T18:51:06.274Z,24.63
2018-12-07T18:53:35.568Z,35.43
2018-12-07T18:56:04.926Z,33.63
2018-12-07T18:58:33.900Z,40.17
2018-12-07T19:01:03.269Z,36.97
2018-12-07T19:03:32.210Z,40.33
2018-12-07T19:06:01.170Z,38.23
2018-12-07T19:08:30.185Z,33.97
2018-12-07T19:10:59.359Z,33.10
2018-12-07T19:13:28.067Z,49.10
2018-12-07T19:15:57.139Z,31.23
2018-12-07T19:18:26.395Z,43.53
2018-12-07T19:20:55.350Z,29.17
2018-12-07T19:23:24.571Z,42.83
2018-12-07T19:25:53.683Z,25.90
2018-12-07T19:28:22.772Z,35.57
2018-12-07T19:30:52.270Z,32.00
2018-12-07T19:33:21.357Z,36.53
2018-12-07T19:35:50.427Z,40.87
2018-12-07T19:38:19.358Z,50.60
2018-12-07T19:40:48.244Z,34.83
2018-12-07T19:43:17.435Z,33.23
2018-12-07T19:45:46.292Z,30.77
2018-12-07T19:48:15.502Z,32.47
2018-12-07T19:50:44.429Z,32.30
2018-12-07T19:53:13.354Z,28.50
2018-12-07T19:55:42.648Z,37.67
2018-12-07T19:58:11.454Z,37.53
2018-12-07T20:00:40.626Z,42.13
2018-12-07T20:03:09.972Z,44.60
2018-12-07T20:05:39.028Z,39.43
2018-12-07T20:08:08.517Z,36.30
2018-12-07T20:10:37.645Z,42.73
2018-12-07T20:13:08.034Z,38.30
2018-12-07T20:15:37.710Z,31.53
2018-12-07T20:18:06.744Z,36.67
2018-12-07T20:20:35.899Z,40.97
2018-12-07T20:23:04.842Z,40.10
2018-12-07T20:25:33.762Z,34.50
2018-12-07T20:28:03.022Z,36.07
2018-12-07T20:30:32.051Z,33.77
2018-12-07T20:33:01.053Z,35.63
2018-12-07T20:35:30.088Z,44.37
2018-12-07T20:37:59.538Z,36.13
2018-12-07T20:40:28.652Z,39.97
2018-12-07T20:42:57.414Z,44.13
2018-12-07T20:45:26.619Z,46.63
2018-12-07T20:47:55.793Z,37.73
2018-12-07T20:50:24.985Z,35.47
2018-12-07T20:52:53.876Z,46.97
2018-12-07T20:55:22.894Z,35.87
2018-12-07T20:57:52.013Z,37.87
2018-12-07T21:00:20.850Z,45.03
2018-12-07T21:02:50.060Z,37.20
2018-12-07T21:05:33.676Z,36.97
2018-12-07T21:08:13.538Z,40.00
2018-12-07T21:11:08.755Z,40.77
2018-12-07T21:15:44.230Z,34.17
2018-12-07T21:18:13.329Z,43.70
2018-12-07T21:20:42.307Z,41.27
2018-12-07T21:23:11.109Z,39.83
2018-12-07T21:25:40.075Z,41.83
2018-12-07T21:28:09.187Z,45.17
2018-12-07T21:30:52.972Z,37.33
2018-12-07T21:36:38.902Z,42.93
2018-12-07T21:39:44.565Z,33.37
2018-12-07T21:42:13.714Z,35.63
2018-12-07T21:44:42.850Z,43.67
2018-12-07T21:47:11.882Z,36.77
2018-12-07T21:49:50.669Z,41.97
2018-12-07T21:52:23.103Z,39.60
2018-12-07T21:54:52.035Z,31.77
2018-12-07T21:57:20.937Z,32.97
2018-12-07T21:59:50.764Z,36.00
2018-12-07T22:02:20.222Z,43.70
2018-12-07T22:04:49.047Z,45.07
2018-12-07T22:07:18.049Z,37.10
2018-12-07T22:09:46.926Z,35.03
2018-12-07T22:12:15.725Z,38.60
2018-12-07T22:14:44.541Z,35.03
2018-12-07T22:17:14.320Z,35.57
2018-12-07T22:19:43.320Z,33.93
2018-12-07T22:22:12.956Z,34.37
2018-12-07T22:24:41.832Z,36.33
2018-12-07T22:27:10.856Z,35.77
2018-12-07T22:29:40.050Z,33.23
2018-12-07T22:32:09.475Z,32.83
2018-12-07T22:34:38.606Z,40.10
2018-12-07T22:37:07.565Z,37.00
2018-12-07T22:39:36.981Z,44.87
2018-12-07T22:42:06.278Z,35.00
2018-12-07T22:44:35.329Z,32.53
2018-12-07T22:47:04.176Z,33.77
2018-12-07T22:49:33.272Z,34.97
2018-12-07T22:52:02.286Z,30.00
2018-12-07T22:54:32.948Z,34.70
2018-12-07T22:57:02.079Z,27.10
2018-12-07T22:59:31.195Z,33.97
2018-12-07T23:02:00.395Z,32.67
2018-12-07T23:04:29.497Z,30.60
2018-12-07T23:06:58.483Z,29.90
2018-12-07T23:09:27.586Z,31.37
2018-12-07T23:11:56.633Z,30.10
2018-12-07T23:14:25.409Z,31.83
2018-12-07T23:16:54.341Z,35.90
2018-12-07T23:19:23.113Z,31.43
2018-12-07T23:21:52.149Z,22.27
2018-12-07T23:24:21.317Z,35.97
2018-12-07T23:26:50.446Z,42.50
2018-12-07T23:29:22.192Z,27.63
2018-12-07T23:31:51.325Z,28.10
2018-12-07T23:34:19.957Z,37.60
2018-12-07T23:36:48.642Z,35.27
2018-12-07T23:39:17.607Z,36.47
2018-12-07T23:41:46.646Z,30.30
2018-12-07T23:44:15.321Z,26.30
2018-12-07T23:46:44.329Z,33.03
2018-12-07T23:49:13.068Z,27.60
2018-12-07T23:51:41.923Z,35.13
2018-12-07T23:54:10.652Z,31.90
2018-12-07T23:56:39.365Z,35.97
2018-12-07T23:59:08.137Z,32.17
